BERRYESSA (BER)

Elevation: 456' · PUTAH CR basin · Operator: US Bureau of Reclamation

Provisional data, subject to change.
Query executed Tuesday at 16:56:12   clock

Select a sensor type for a plot of data.
Note: Reservoir Flows are daily averages.

Earlier

Date RES ELE    STORAGE    OUTFLOW    INFLOW    PPT INC   
 FEET   AF   CFS   CFS   INCHES  
06/01/2015 407.47 989806 535 91 0.00
06/02/2015 407.40 988714 522 58 0.00
06/03/2015 407.32 987468 526 -10 0.00
06/04/2015 407.25 986377 546 88 0.00
06/05/2015 407.13 984510 556 -309 0.00
06/06/2015 407.08 983732 551 297 0.00
06/07/2015 407.00 982488 593 93 0.00
06/08/2015 406.91 981089 617 19 0.00
06/09/2015 406.80 979380 666 -79 0.00
06/10/2015 406.72 978139 676 223 0.03
06/11/2015 406.65 977053 628 105 0.00
06/12/2015 406.56 975657 623 36 0.00
06/13/2015 406.47 974262 628 87 0.00
06/14/2015 406.38 972869 569 29 0.00
06/15/2015 406.30 971630 548 70 0.00
06/16/2015 406.19 969929 566 -165 0.00
06/17/2015 406.12 968847 583 164 0.00
06/18/2015 406.02 967302 613 -39 0.00
06/19/2015 405.93 965912 629 105 0.00
06/20/2015 405.83 964369 625 -22 0.00
06/21/2015 405.72 962673 606 -113 0.00
06/22/2015 405.63 961286 612 80 0.00
06/23/2015 405.54 959900 626 43 0.00
06/24/2015 405.45 958515 700 143 0.00
06/25/2015 405.32 956516 721 -136 0.00
06/26/2015 405.24 955286 741 282 0.00
06/27/2015 405.11 953290 745 -55 0.00
06/28/2015 405.01 951756 729 67 0.00
06/29/2015 -- -- -- -- --
06/30/2015 -- -- -- -- --

Later | Latest

Warning! This data is preliminary and subject to revision.

Show BER Map | Plot BER Data | 1 Month BER Data | Real-Time BER Data | BER Info